createdAt,value
2023-05-09T00:00:03.949Z,16.85
2023-05-09T00:02:21.297Z,16.02
2023-05-09T00:04:39.110Z,16.63
2023-05-09T00:06:56.493Z,17.55
2023-05-09T00:09:14.243Z,17.15
2023-05-09T00:11:31.594Z,16.33
2023-05-09T00:13:48.912Z,18.10
2023-05-09T00:16:06.267Z,17.08
2023-05-09T00:18:24.997Z,16.70
2023-05-09T00:20:42.256Z,17.35
2023-05-09T00:22:59.857Z,18.45
2023-05-09T00:25:17.363Z,17.50
2023-05-09T00:27:34.741Z,16.95
2023-05-09T00:29:51.785Z,17.42
2023-05-09T00:32:08.837Z,16.08
2023-05-09T00:34:26.173Z,16.08
2023-05-09T00:36:44.397Z,17.65
2023-05-09T00:39:01.627Z,17.58
2023-05-09T00:41:19.265Z,17.58
2023-05-09T00:43:36.203Z,17.48
2023-05-09T00:45:53.919Z,17.60
2023-05-09T00:48:12.601Z,19.45
2023-05-09T00:50:30.294Z,18.75
2023-05-09T00:52:47.627Z,17.85
2023-05-09T00:55:04.566Z,18.13
2023-05-09T00:57:21.810Z,19.10
2023-05-09T00:59:40.043Z,18.50
2023-05-09T01:01:57.721Z,16.88
2023-05-09T01:04:14.998Z,17.83
2023-05-09T01:06:32.305Z,19.15
2023-05-09T01:08:49.285Z,19.08
2023-05-09T01:11:06.680Z,18.48
2023-05-09T01:13:23.733Z,18.73
2023-05-09T01:15:41.525Z,19.48
2023-05-09T01:17:58.921Z,20.25
2023-05-09T01:20:16.313Z,19.38
2023-05-09T01:22:34.019Z,20.63
2023-05-09T01:24:51.245Z,20.58
2023-05-09T01:27:08.881Z,19.15
2023-05-09T01:29:26.599Z,21.20
2023-05-09T01:31:44.352Z,23.98
2023-05-09T01:34:01.392Z,26.58
2023-05-09T01:36:18.751Z,23.85
2023-05-09T01:38:36.976Z,23.38
2023-05-09T01:40:54.670Z,20.52
2023-05-09T01:43:12.011Z,20.90
2023-05-09T01:45:29.264Z,20.00
2023-05-09T01:47:47.148Z,21.02
2023-05-09T01:50:04.184Z,21.13
2023-05-09T01:52:21.810Z,21.42
2023-05-09T01:54:39.126Z,19.38
2023-05-09T01:56:56.177Z,20.20
2023-05-09T01:59:13.457Z,21.77
2023-05-09T02:01:30.735Z,19.75
2023-05-09T02:03:47.966Z,20.50
2023-05-09T02:06:06.193Z,20.77
2023-05-09T02:08:23.515Z,20.35
2023-05-09T02:10:40.831Z,19.45
2023-05-09T02:12:58.156Z,19.42
2023-05-09T02:15:15.237Z,23.13
2023-05-09T02:17:33.125Z,23.25
2023-05-09T02:19:50.825Z,22.73
2023-05-09T02:22:08.190Z,23.92
2023-05-09T02:24:25.554Z,25.73
2023-05-09T02:26:42.413Z,25.85
2023-05-09T02:28:59.732Z,24.25
2023-05-09T02:31:17.053Z,22.05
2023-05-09T02:33:34.322Z,23.45
2023-05-09T02:35:51.733Z,22.92
2023-05-09T02:38:08.666Z,24.85
2023-05-09T02:40:26.898Z,26.25
2023-05-09T02:42:44.177Z,24.65
2023-05-09T02:45:01.452Z,24.77
2023-05-09T02:47:18.716Z,26.42
2023-05-09T02:49:35.576Z,23.10
2023-05-09T02:51:52.890Z,22.60
2023-05-09T02:54:10.783Z,20.10
2023-05-09T02:56:28.048Z,20.15
2023-05-09T02:58:46.307Z,19.95
2023-05-09T03:01:03.612Z,22.05
2023-05-09T03:03:20.684Z,22.17
2023-05-09T03:05:38.355Z,21.50
2023-05-09T03:07:55.640Z,22.30
2023-05-09T03:10:12.964Z,20.17
2023-05-09T03:12:30.273Z,23.58
2023-05-09T03:14:48.490Z,22.55
2023-05-09T03:17:05.820Z,22.25
2023-05-09T03:19:24.116Z,20.55
2023-05-09T03:21:41.343Z,20.27
2023-05-09T03:23:59.015Z,19.67
2023-05-09T03:26:16.630Z,19.83
2023-05-09T03:28:34.950Z,19.88
2023-05-09T03:30:51.923Z,23.00
2023-05-09T03:33:09.267Z,21.45
2023-05-09T03:35:26.907Z,21.92
2023-05-09T03:37:44.544Z,22.40
2023-05-09T03:40:01.798Z,22.05
2023-05-09T03:42:19.671Z,21.95
2023-05-09T03:44:37.335Z,21.98
2023-05-09T03:46:55.055Z,23.02
2023-05-09T03:49:12.396Z,24.40
2023-05-09T03:51:30.626Z,23.58
2023-05-09T03:53:47.866Z,23.90
2023-05-09T03:56:05.121Z,24.98
2023-05-09T03:58:23.497Z,24.48
2023-05-09T04:00:40.815Z,23.70
2023-05-09T04:02:58.609Z,22.02
2023-05-09T04:05:16.662Z,22.83
2023-05-09T04:07:34.301Z,23.10
2023-05-09T04:09:51.611Z,25.70
2023-05-09T04:12:08.863Z,24.80
2023-05-09T04:14:26.188Z,24.30
2023-05-09T04:16:44.411Z,24.45
2023-05-09T04:19:01.838Z,22.88
2023-05-09T04:21:19.177Z,25.15
2023-05-09T04:23:36.438Z,24.58
2023-05-09T04:25:53.674Z,26.10
2023-05-09T04:28:10.605Z,24.10
2023-05-09T04:30:27.930Z,24.58
2023-05-09T04:32:45.380Z,24.35
2023-05-09T04:35:02.752Z,24.63
2023-05-09T04:37:20.059Z,26.77
2023-05-09T04:39:36.994Z,26.42
2023-05-09T04:41:55.301Z,28.00
2023-05-09T04:44:13.609Z,26.85
2023-05-09T04:46:30.957Z,27.60
2023-05-09T04:48:48.452Z,29.75
2023-05-09T04:51:05.765Z,27.35
2023-05-09T04:53:23.101Z,28.55
2023-05-09T04:55:40.394Z,25.25
2023-05-09T04:57:57.460Z,27.90
2023-05-09T05:00:14.963Z,26.27
2023-05-09T05:02:32.254Z,27.95
2023-05-09T05:04:50.575Z,24.73
2023-05-09T05:07:07.936Z,26.27
2023-05-09T05:09:25.231Z,27.75
2023-05-09T05:11:53.203Z,29.40
2023-05-09T05:14:15.902Z,30.35
2023-05-09T05:16:33.028Z,31.50
2023-05-09T05:18:50.036Z,30.27
2023-05-09T05:21:07.739Z,32.25
2023-05-09T05:23:25.072Z,31.05
2023-05-09T05:25:42.407Z,30.63
2023-05-09T05:27:59.643Z,30.92
2023-05-09T05:30:16.929Z,29.77
2023-05-09T05:32:34.300Z,30.95
2023-05-09T05:34:51.276Z,32.10
2023-05-09T05:37:09.594Z,31.90
2023-05-09T05:39:26.502Z,31.83
2023-05-09T05:41:44.838Z,30.20
2023-05-09T05:44:02.052Z,29.77
2023-05-09T05:46:19.495Z,31.75
2023-05-09T05:48:36.872Z,34.45
2023-05-09T05:50:54.083Z,32.28
2023-05-09T05:53:12.391Z,32.85
2023-05-09T05:55:29.729Z,34.55
2023-05-09T05:57:47.414Z,30.85
2023-05-09T06:00:04.707Z,30.17
2023-05-09T06:02:22.599Z,26.85
2023-05-09T06:04:40.062Z,30.00
2023-05-09T06:06:58.098Z,32.17
2023-05-09T06:09:15.441Z,30.65
2023-05-09T06:11:33.198Z,32.35
2023-05-09T06:13:50.309Z,33.08
2023-05-09T06:16:18.029Z,33.60
2023-05-09T06:18:37.062Z,32.80
2023-05-09T06:20:54.366Z,33.22
2023-05-09T06:23:12.052Z,34.53
2023-05-09T06:25:31.211Z,34.20
2023-05-09T06:27:48.445Z,34.17
2023-05-09T06:30:14.133Z,32.10
2023-05-09T06:32:41.767Z,31.67
2023-05-09T06:34:59.456Z,31.00
2023-05-09T06:37:16.733Z,30.90
2023-05-09T06:39:33.947Z,30.48
2023-05-09T06:41:50.923Z,29.67
2023-05-09T06:44:08.180Z,29.33
2023-05-09T06:46:25.257Z,30.02
2023-05-09T06:48:42.539Z,26.77
2023-05-09T06:50:59.862Z,29.67
2023-05-09T06:53:18.171Z,27.13
2023-05-09T06:55:35.468Z,27.98
2023-05-09T06:57:52.547Z,27.45
2023-05-09T07:00:10.654Z,24.60
2023-05-09T07:02:27.980Z,25.27
2023-05-09T07:04:45.430Z,22.70
2023-05-09T07:07:03.698Z,22.00
2023-05-09T07:09:21.047Z,23.00
2023-05-09T07:11:39.041Z,23.90
2023-05-09T07:13:56.606Z,22.45
2023-05-09T07:16:13.959Z,21.67
2023-05-09T07:18:31.334Z,22.60
2023-05-09T07:20:49.289Z,19.80
2023-05-09T07:23:06.289Z,21.08
2023-05-09T07:25:23.252Z,20.73
2023-05-09T07:27:40.578Z,19.63
2023-05-09T07:29:57.475Z,19.30
2023-05-09T07:32:17.214Z,19.02
2023-05-09T07:34:35.000Z,19.90
2023-05-09T07:36:53.040Z,20.23
2023-05-09T07:39:10.374Z,19.55
2023-05-09T07:41:27.628Z,19.48
2023-05-09T07:43:44.889Z,19.65
2023-05-09T07:46:02.235Z,19.90
2023-05-09T07:48:19.541Z,18.08
2023-05-09T07:50:36.623Z,18.38
2023-05-09T07:52:53.586Z,17.02
2023-05-09T07:55:11.364Z,17.08
2023-05-09T07:57:29.181Z,17.77
2023-05-09T07:59:46.908Z,17.25
2023-05-09T08:02:04.886Z,16.88
2023-05-09T08:04:22.284Z,16.42
2023-05-09T08:06:39.577Z,15.35
2023-05-09T08:08:57.166Z,15.20
2023-05-09T08:11:14.985Z,14.40
2023-05-09T08:13:32.906Z,13.27
2023-05-09T08:15:50.555Z,13.55
2023-05-09T08:18:07.953Z,12.60
2023-05-09T08:20:25.328Z,12.82
2023-05-09T08:22:43.557Z,12.68
2023-05-09T08:25:01.825Z,12.45
2023-05-09T08:27:19.211Z,12.52
2023-05-09T08:29:37.564Z,11.73
2023-05-09T08:31:54.926Z,12.48
2023-05-09T08:34:13.507Z,11.70
2023-05-09T08:36:30.812Z,12.45
2023-05-09T08:38:49.288Z,11.32
2023-05-09T08:41:06.977Z,11.80
2023-05-09T08:43:26.425Z,10.93
2023-05-09T08:45:44.241Z,10.88
2023-05-09T08:48:04.263Z,10.00
2023-05-09T08:50:22.068Z,9.70
2023-05-09T08:52:41.351Z,8.65
2023-05-09T08:54:59.422Z,8.90
2023-05-09T08:57:16.824Z,9.35
2023-05-09T08:59:34.148Z,7.75
2023-05-09T09:01:55.788Z,7.82
2023-05-09T09:04:14.766Z,7.10
2023-05-09T09:06:32.714Z,7.53
2023-05-09T09:08:51.184Z,7.00
2023-05-09T09:11:08.476Z,6.00
2023-05-09T09:13:26.043Z,5.75
2023-05-09T09:15:43.440Z,6.15
2023-05-09T09:18:01.016Z,5.82
2023-05-09T09:20:18.327Z,5.30
2023-05-09T09:22:35.259Z,5.30
2023-05-09T09:24:52.149Z,4.78
2023-05-09T09:27:09.468Z,4.20
2023-05-09T09:29:26.802Z,3.70
2023-05-09T09:31:44.153Z,4.53
2023-05-09T09:34:01.476Z,4.00
2023-05-09T09:36:18.711Z,4.05
2023-05-09T09:38:36.971Z,3.28
2023-05-09T09:40:54.284Z,3.20
2023-05-09T09:43:11.539Z,3.40
2023-05-09T09:45:28.871Z,3.03
2023-05-09T09:47:46.671Z,3.35
2023-05-09T09:50:03.943Z,3.35
2023-05-09T09:52:21.171Z,2.88
2023-05-09T09:54:38.207Z,2.95
2023-05-09T09:56:57.301Z,2.85
2023-05-09T09:59:14.576Z,3.33
2023-05-09T10:01:31.549Z,3.50
2023-05-09T10:03:48.561Z,3.13
2023-05-09T10:06:05.537Z,2.90
2023-05-09T10:08:22.796Z,2.72
2023-05-09T10:10:41.105Z,3.28
2023-05-09T10:12:58.482Z,3.42
2023-05-09T10:15:16.273Z,3.00
2023-05-09T10:17:34.090Z,3.10
2023-05-09T10:19:52.382Z,3.45
2023-05-09T10:22:09.326Z,3.28
2023-05-09T10:24:27.564Z,3.20
2023-05-09T10:26:44.856Z,3.05
2023-05-09T10:29:03.120Z,2.65
2023-05-09T10:31:20.399Z,2.60
2023-05-09T10:33:37.410Z,2.90
2023-05-09T10:35:54.648Z,2.70
2023-05-09T10:38:11.710Z,2.70
2023-05-09T10:40:29.365Z,2.67
2023-05-09T10:42:46.604Z,2.80
2023-05-09T10:45:03.899Z,2.70
2023-05-09T10:47:21.198Z,2.58
2023-05-09T10:49:38.291Z,2.55
2023-05-09T10:51:55.382Z,2.95
2023-05-09T10:54:12.715Z,2.90
2023-05-09T10:56:29.775Z,2.72
2023-05-09T10:58:46.728Z,2.75
2023-05-09T11:01:03.978Z,3.13
2023-05-09T11:03:21.364Z,3.28
2023-05-09T11:05:38.752Z,3.08
2023-05-09T11:07:56.996Z,2.83
2023-05-09T11:10:14.027Z,2.90
2023-05-09T11:12:31.396Z,2.65
2023-05-09T11:14:48.274Z,2.45
2023-05-09T11:17:05.680Z,2.70
2023-05-09T11:19:24.027Z,2.60
2023-05-09T11:21:41.446Z,2.53
2023-05-09T11:23:58.374Z,2.60
2023-05-09T11:26:16.750Z,2.35
2023-05-09T11:28:33.979Z,2.50
2023-05-09T11:30:51.237Z,2.50
2023-05-09T11:33:08.900Z,2.70
2023-05-09T11:35:26.302Z,2.65
2023-05-09T11:37:44.541Z,2.60
2023-05-09T11:40:01.546Z,2.85
2023-05-09T11:42:18.774Z,2.90
2023-05-09T11:44:36.146Z,2.53
2023-05-09T11:46:53.472Z,2.40
2023-05-09T11:49:12.102Z,2.13
2023-05-09T11:51:29.647Z,2.33
2023-05-09T11:53:46.938Z,2.53
2023-05-09T11:56:04.214Z,2.53
2023-05-09T11:58:21.564Z,2.10
2023-05-09T12:00:38.575Z,2.20
2023-05-09T12:02:55.870Z,2.20
2023-05-09T12:05:14.180Z,2.05
2023-05-09T12:07:31.700Z,2.20
2023-05-09T12:09:48.747Z,2.08
2023-05-09T12:12:06.389Z,2.03
2023-05-09T12:14:23.755Z,2.30
2023-05-09T12:16:40.898Z,2.00
2023-05-09T12:18:58.975Z,2.13
2023-05-09T12:21:17.296Z,1.90
2023-05-09T12:23:34.616Z,2.10
2023-05-09T12:25:51.967Z,1.92
2023-05-09T12:28:08.972Z,1.75
2023-05-09T12:30:26.928Z,1.98
2023-05-09T12:32:44.866Z,2.15
2023-05-09T12:35:02.917Z,2.08
2023-05-09T12:37:20.218Z,2.25
2023-05-09T12:39:38.273Z,1.88
2023-05-09T12:42:01.548Z,2.30
2023-05-09T12:44:19.223Z,2.50
2023-05-09T12:46:37.674Z,2.10
2023-05-09T12:48:56.099Z,2.42
2023-05-09T12:51:13.403Z,2.30
2023-05-09T12:53:30.655Z,2.70
2023-05-09T12:55:47.719Z,2.30
2023-05-09T12:58:05.424Z,2.50
2023-05-09T13:00:22.696Z,2.95
2023-05-09T13:02:40.136Z,2.50
2023-05-09T13:04:58.491Z,2.50
2023-05-09T13:07:15.744Z,2.78
2023-05-09T13:09:32.712Z,2.60
2023-05-09T13:11:49.925Z,2.60
2023-05-09T13:14:07.227Z,2.60
2023-05-09T13:16:24.253Z,2.50
2023-05-09T13:18:41.583Z,2.55
2023-05-09T13:20:58.932Z,2.97
2023-05-09T13:23:16.242Z,3.10
2023-05-09T13:25:34.613Z,2.67
2023-05-09T13:27:51.826Z,3.00
2023-05-09T13:30:09.109Z,2.53
2023-05-09T13:32:26.395Z,2.70
2023-05-09T13:34:43.735Z,2.75
2023-05-09T13:37:01.443Z,2.78
2023-05-09T13:39:18.345Z,2.80
2023-05-09T13:41:37.525Z,3.10
2023-05-09T13:43:55.422Z,2.75
2023-05-09T13:46:12.722Z,3.00
2023-05-09T13:48:31.326Z,3.05
2023-05-09T13:50:49.061Z,3.08
2023-05-09T13:53:06.352Z,2.90
2023-05-09T13:55:23.301Z,3.20
2023-05-09T13:57:40.596Z,3.22
2023-05-09T14:00:00.170Z,3.30
2023-05-09T14:02:17.122Z,3.08
2023-05-09T14:04:34.049Z,3.15
2023-05-09T14:06:51.418Z,3.63
2023-05-09T14:09:09.356Z,3.38
2023-05-09T14:11:26.321Z,3.67
2023-05-09T14:13:46.034Z,3.65
2023-05-09T14:16:03.360Z,4.25
2023-05-09T14:18:21.254Z,4.07
2023-05-09T14:20:38.743Z,4.28
2023-05-09T14:22:57.041Z,4.40
2023-05-09T14:25:14.373Z,3.72
2023-05-09T14:27:31.319Z,3.90
2023-05-09T14:29:48.393Z,3.60
2023-05-09T14:32:05.714Z,3.80
2023-05-09T14:34:23.008Z,4.60
2023-05-09T14:36:41.009Z,5.20
2023-05-09T14:38:57.941Z,5.25
2023-05-09T14:41:14.860Z,5.90
2023-05-09T14:43:31.694Z,5.50
2023-05-09T14:45:48.959Z,5.93
2023-05-09T14:48:06.062Z,6.10
2023-05-09T14:50:23.077Z,6.45
2023-05-09T14:52:41.262Z,6.78
2023-05-09T14:54:58.571Z,6.32
2023-05-09T14:57:15.865Z,6.30
2023-05-09T14:59:34.744Z,6.55
2023-05-09T15:01:53.517Z,6.57
2023-05-09T15:04:10.847Z,6.43
2023-05-09T15:06:28.222Z,6.50
2023-05-09T15:08:46.492Z,6.40
2023-05-09T15:11:04.182Z,6.22
2023-05-09T15:13:21.522Z,6.38
2023-05-09T15:15:38.901Z,6.13
2023-05-09T15:17:55.849Z,6.78
2023-05-09T15:20:13.514Z,6.70
2023-05-09T15:22:31.284Z,7.40
2023-05-09T15:24:48.381Z,7.22
2023-05-09T15:27:05.413Z,7.07
2023-05-09T15:29:22.613Z,7.15
2023-05-09T15:31:40.819Z,7.75
2023-05-09T15:33:58.493Z,7.85
2023-05-09T15:36:15.736Z,7.32
2023-05-09T15:38:33.953Z,8.30
2023-05-09T15:40:51.218Z,7.40
2023-05-09T15:43:09.578Z,6.68
2023-05-09T15:45:26.897Z,6.07
2023-05-09T15:47:44.024Z,5.10
2023-05-09T15:50:01.379Z,5.70
2023-05-09T15:52:18.666Z,5.43
2023-05-09T15:54:36.318Z,5.88
2023-05-09T15:56:53.379Z,5.78
2023-05-09T15:59:10.582Z,5.68
2023-05-09T16:01:27.679Z,5.63
2023-05-09T16:03:45.963Z,5.93
2023-05-09T16:06:03.447Z,5.95
2023-05-09T16:08:20.510Z,5.82
2023-05-09T16:10:37.790Z,6.00
2023-05-09T16:12:55.137Z,5.22
2023-05-09T16:15:12.788Z,6.07
2023-05-09T16:17:30.137Z,5.70
2023-05-09T16:19:47.159Z,6.22
2023-05-09T16:22:04.400Z,5.78
2023-05-09T16:24:21.631Z,6.07
2023-05-09T16:26:38.913Z,5.53
2023-05-09T16:28:56.272Z,6.00
2023-05-09T16:31:13.636Z,5.50
2023-05-09T16:33:30.902Z,6.05
2023-05-09T16:35:49.170Z,5.90
2023-05-09T16:38:07.610Z,5.72
2023-05-09T16:40:27.346Z,5.70
2023-05-09T16:42:44.575Z,5.70
2023-05-09T16:45:01.861Z,5.82
2023-05-09T16:47:19.516Z,6.00
2023-05-09T16:49:36.500Z,6.07
2023-05-09T16:51:53.710Z,6.50
2023-05-09T16:54:11.095Z,6.07
2023-05-09T16:56:28.081Z,7.03
2023-05-09T16:58:45.333Z,6.43
2023-05-09T17:01:02.292Z,6.82
2023-05-09T17:03:19.391Z,6.60
2023-05-09T17:05:36.531Z,5.90
2023-05-09T17:07:53.754Z,6.65
2023-05-09T17:10:11.030Z,6.22
2023-05-09T17:12:28.304Z,6.32
2023-05-09T17:14:45.577Z,7.13
2023-05-09T17:17:02.896Z,6.40
2023-05-09T17:19:21.137Z,6.05
2023-05-09T17:21:38.100Z,6.55
2023-05-09T17:23:55.365Z,5.88
2023-05-09T17:26:12.412Z,5.13
2023-05-09T17:28:29.367Z,4.95
2023-05-09T17:30:47.406Z,4.10
2023-05-09T17:33:04.825Z,3.65
2023-05-09T17:35:22.273Z,4.10
2023-05-09T17:37:39.510Z,4.00
2023-05-09T17:39:56.846Z,4.45
2023-05-09T17:42:14.199Z,4.15
2023-05-09T17:44:31.502Z,3.67
2023-05-09T17:46:48.772Z,3.95
2023-05-09T17:49:06.953Z,3.60
2023-05-09T17:51:24.255Z,4.32
2023-05-09T17:53:41.530Z,4.20
2023-05-09T17:55:58.813Z,4.40
2023-05-09T17:58:16.044Z,4.32
2023-05-09T18:00:33.412Z,4.32
2023-05-09T18:02:50.993Z,4.25
2023-05-09T18:05:08.383Z,3.97
2023-05-09T18:07:25.575Z,4.40
2023-05-09T18:09:43.857Z,4.85
2023-05-09T18:12:01.139Z,5.18
2023-05-09T18:14:18.286Z,4.57
2023-05-09T18:16:35.695Z,4.75
2023-05-09T18:18:52.805Z,4.68
2023-05-09T18:21:11.176Z,4.00
2023-05-09T18:23:28.449Z,4.20
2023-05-09T18:25:46.370Z,4.13
2023-05-09T18:28:04.849Z,4.00
2023-05-09T18:30:22.544Z,4.47
2023-05-09T18:32:40.437Z,4.32
2023-05-09T18:34:57.394Z,4.40
2023-05-09T18:37:15.058Z,4.00
2023-05-09T18:39:33.013Z,3.92
2023-05-09T18:41:50.070Z,3.80
2023-05-09T18:44:07.420Z,3.97
2023-05-09T18:46:24.768Z,3.72
2023-05-09T18:48:42.651Z,3.88
2023-05-09T18:50:59.920Z,4.35
2023-05-09T18:53:17.144Z,4.32
2023-05-09T18:55:34.423Z,4.55
2023-05-09T18:57:52.715Z,4.47
2023-05-09T19:00:09.649Z,4.40
2023-05-09T19:02:26.958Z,4.60
2023-05-09T19:04:45.240Z,3.70
2023-05-09T19:07:02.590Z,4.47
2023-05-09T19:09:20.616Z,4.47
2023-05-09T19:11:37.904Z,4.53
2023-05-09T19:13:54.977Z,4.45
2023-05-09T19:16:12.334Z,4.68
2023-05-09T19:18:30.294Z,4.70
2023-05-09T19:20:47.222Z,4.28
2023-05-09T19:23:04.571Z,4.28
2023-05-09T19:25:21.796Z,4.22
2023-05-09T19:27:38.850Z,3.58
2023-05-09T19:29:56.779Z,3.80
2023-05-09T19:32:14.257Z,3.17
2023-05-09T19:34:31.534Z,2.97
2023-05-09T19:36:48.843Z,3.08
2023-05-09T19:39:07.106Z,2.42
2023-05-09T19:41:24.160Z,3.00
2023-05-09T19:43:41.109Z,2.83
2023-05-09T19:45:58.402Z,1.83
2023-05-09T19:48:16.486Z,1.77
2023-05-09T19:50:33.803Z,1.90
2023-05-09T19:52:51.164Z,1.70
2023-05-09T19:55:09.495Z,1.60
2023-05-09T19:57:26.760Z,1.67
2023-05-09T19:59:44.031Z,1.60
2023-05-09T20:02:00.967Z,1.20
2023-05-09T20:04:18.057Z,1.23
2023-05-09T20:06:34.988Z,1.10
2023-05-09T20:08:53.236Z,0.88
2023-05-09T20:11:10.590Z,0.98
2023-05-09T20:13:27.771Z,0.90
2023-05-09T20:15:45.386Z,1.05
2023-05-09T20:18:02.414Z,0.98
2023-05-09T20:20:19.848Z,0.80
2023-05-09T20:22:38.022Z,0.70
2023-05-09T20:24:54.927Z,0.80
2023-05-09T20:27:12.264Z,0.68
2023-05-09T20:29:30.644Z,0.70
2023-05-09T20:31:47.814Z,0.70
2023-05-09T20:34:05.280Z,0.50
2023-05-09T20:36:23.668Z,0.80
2023-05-09T20:38:40.698Z,0.80
2023-05-09T20:40:59.002Z,0.65
2023-05-09T20:43:16.247Z,0.70
2023-05-09T20:45:33.599Z,0.70
2023-05-09T20:47:50.848Z,0.70
2023-05-09T20:50:15.539Z,0.60
2023-05-09T20:52:32.977Z,0.75
2023-05-09T20:54:51.213Z,0.95
2023-05-09T20:57:09.546Z,0.63
2023-05-09T20:59:27.447Z,1.15
2023-05-09T21:01:44.681Z,0.88
2023-05-09T21:04:02.053Z,0.98
2023-05-09T21:06:19.381Z,0.90
2023-05-09T21:08:37.443Z,1.10
2023-05-09T21:10:55.662Z,1.42
2023-05-09T21:13:13.091Z,1.50
2023-05-09T21:15:30.465Z,1.67
2023-05-09T21:17:47.526Z,1.40
2023-05-09T21:20:04.581Z,1.20
2023-05-09T21:22:22.616Z,1.83
2023-05-09T21:24:39.871Z,1.80
2023-05-09T21:26:58.312Z,1.63
2023-05-09T21:29:15.322Z,1.50
2023-05-09T21:31:32.625Z,1.13
2023-05-09T21:33:50.223Z,1.38
2023-05-09T21:36:07.261Z,1.00
2023-05-09T21:38:24.494Z,1.27
2023-05-09T21:40:41.566Z,1.20
2023-05-09T21:42:58.968Z,1.20
2023-05-09T21:45:15.979Z,0.85
2023-05-09T21:47:33.330Z,0.95
2023-05-09T21:49:50.756Z,0.93
2023-05-09T21:52:08.424Z,0.93
2023-05-09T21:54:25.728Z,0.80
2023-05-09T21:56:42.963Z,0.88
2023-05-09T21:59:00.214Z,0.80
2023-05-09T22:01:17.547Z,0.80
2023-05-09T22:03:34.614Z,0.73
2023-05-09T22:05:52.045Z,0.70
2023-05-09T22:08:10.318Z,0.80
2023-05-09T22:10:27.539Z,0.68
2023-05-09T22:12:44.813Z,0.82
2023-05-09T22:15:02.042Z,0.70
2023-05-09T22:17:19.419Z,0.80
2023-05-09T22:19:37.674Z,0.85
2023-05-09T22:21:54.930Z,0.80
2023-05-09T22:24:12.189Z,0.75
2023-05-09T22:26:29.512Z,1.00
2023-05-09T22:28:46.377Z,1.00
2023-05-09T22:31:03.602Z,0.98
2023-05-09T22:33:20.761Z,1.00
2023-05-09T22:35:38.083Z,0.85
2023-05-09T22:37:55.423Z,0.98
2023-05-09T22:40:13.891Z,1.17
2023-05-09T22:42:32.096Z,0.70
2023-05-09T22:44:49.370Z,0.85
2023-05-09T22:47:06.630Z,0.90
2023-05-09T22:49:23.554Z,0.80
2023-05-09T22:51:40.804Z,0.95
2023-05-09T22:53:58.105Z,0.88
2023-05-09T22:56:15.077Z,1.00
2023-05-09T22:58:32.291Z,0.80
2023-05-09T23:00:49.376Z,1.00
2023-05-09T23:03:06.818Z,0.95
2023-05-09T23:05:24.635Z,0.80
2023-05-09T23:07:41.872Z,0.90
2023-05-09T23:09:59.837Z,0.70
2023-05-09T23:12:18.093Z,0.70
2023-05-09T23:14:35.020Z,0.90
2023-05-09T23:16:52.258Z,0.70
2023-05-09T23:19:09.263Z,0.90
2023-05-09T23:21:26.575Z,0.75
2023-05-09T23:23:43.818Z,0.75
2023-05-09T23:26:01.052Z,0.82
2023-05-09T23:28:18.307Z,0.77
2023-05-09T23:30:35.277Z,0.73
2023-05-09T23:32:52.978Z,0.95
2023-05-09T23:35:10.232Z,0.70
2023-05-09T23:37:29.002Z,0.80
2023-05-09T23:39:46.296Z,0.90
2023-05-09T23:42:03.540Z,0.77
2023-05-09T23:44:22.218Z,0.70
2023-05-09T23:46:39.578Z,0.80
2023-05-09T23:48:56.653Z,0.90
2023-05-09T23:51:13.938Z,0.70
2023-05-09T23:53:31.244Z,0.80
2023-05-09T23:55:48.478Z,0.70
2023-05-09T23:58:05.707Z,0.93
